Franklin, North Carolina
Current Conditions -  °F | °C
As of 1:55 PM on Monday 20 Oct 2014 (Local Time) from KRHP Reporting Station
Haze Haze  
Wind Chill: 66°   Ceiling: Unl
Heat Index: 66°   Visibility: 4mi
Dew Point: 49°   Wind: 8mph
Humidity: 54%   Direction: 260°W
Pressure: 30.05"   Gusts: NA
Location:  35.18°N, 83.38°W
Report Text: KRHP 201755Z AUTO 26007KT 210V300 4SM HZ SCT041 19/10 A3005 RMK AO2 T01910096 10191 20045
Loading
Personal Weather Stations






























Interactive Weather Map
Tropical Storm Tracking
New forecast layout! Learn more

10-Day Weather Forecast

Advertisements
Track Severe Weather on mobile